createdAt,value
2023-05-24T03:41:22.982Z,8.38
2023-05-24T03:44:26.611Z,5.28
2023-05-24T03:47:29.403Z,5.70
2023-05-24T03:53:34.879Z,5.62
2023-05-24T03:59:41.376Z,5.53
2023-05-24T04:02:44.580Z,5.53
2023-05-24T04:08:52.766Z,11.80
2023-05-24T04:11:55.827Z,4.85
2023-05-24T04:14:59.554Z,5.50
2023-05-24T04:18:03.459Z,6.47
2023-05-24T04:21:06.288Z,9.32
2023-05-24T04:24:11.852Z,6.65
2023-05-24T04:27:14.481Z,9.05
2023-05-24T04:33:20.209Z,6.18
2023-05-24T04:36:23.992Z,8.73
2023-05-24T04:39:26.657Z,8.25
2023-05-24T04:45:35.152Z,5.72
2023-05-24T04:51:40.579Z,7.05
2023-05-24T04:57:45.956Z,6.62
2023-05-24T05:03:51.769Z,7.50
2023-05-24T05:06:55.611Z,7.15
2023-05-24T05:09:58.284Z,7.37
2023-05-24T05:16:03.813Z,7.35
2023-05-24T05:19:07.165Z,6.50
2023-05-24T05:22:09.872Z,6.80
2023-05-24T05:28:15.304Z,6.97
2023-05-24T05:31:18.339Z,6.97
2023-05-24T05:34:21.349Z,7.47
2023-05-24T05:37:24.294Z,7.22
2023-05-24T05:40:26.970Z,7.60
2023-05-24T05:43:31.104Z,7.47
2023-05-24T05:46:33.785Z,8.15
2023-05-24T05:49:36.897Z,8.43
2023-05-24T05:52:39.490Z,6.47
2023-05-24T05:58:44.958Z,5.30
2023-05-24T06:01:49.067Z,7.93
2023-05-24T06:04:52.075Z,6.62
2023-05-24T06:07:54.791Z,5.50
2023-05-24T06:10:57.737Z,9.60
2023-05-24T06:14:01.373Z,5.53
2023-05-24T06:17:05.951Z,6.72
2023-05-24T06:20:11.112Z,7.50
2023-05-24T06:23:14.313Z,4.68
2023-05-24T06:29:21.046Z,5.10
2023-05-24T06:32:23.887Z,5.03
2023-05-24T06:35:26.962Z,5.82
2023-05-24T06:41:32.399Z,6.45
2023-05-24T06:44:35.121Z,4.95
2023-05-24T06:47:38.378Z,5.53
2023-05-24T06:50:42.814Z,4.93
2023-05-24T06:53:45.953Z,5.30
2023-05-24T06:56:49.875Z,5.87
2023-05-24T06:59:52.905Z,4.30
2023-05-24T07:02:56.508Z,4.20
2023-05-24T07:05:59.584Z,4.20
2023-05-24T07:12:07.019Z,10.23
2023-05-24T07:15:11.378Z,6.32
2023-05-24T07:18:14.750Z,5.72
2023-05-24T07:21:17.524Z,6.28
2023-05-24T07:24:22.172Z,8.88
2023-05-24T07:27:27.741Z,8.85
2023-05-24T07:30:32.565Z,4.70
2023-05-24T07:33:39.211Z,5.50
2023-05-24T07:36:42.275Z,5.10
2023-05-24T07:42:47.785Z,5.22
2023-05-24T07:48:53.288Z,4.70
2023-05-24T07:51:59.681Z,9.48
2023-05-24T07:55:02.609Z,11.23
2023-05-24T08:02:15.638Z,4.75
2023-05-24T08:05:19.046Z,7.57
2023-05-24T08:08:21.622Z,5.53
2023-05-24T08:11:24.657Z,8.93
2023-05-24T08:17:31.709Z,6.43
2023-05-24T08:20:36.669Z,11.12
2023-05-24T08:23:39.703Z,5.03
2023-05-24T08:26:43.695Z,6.28
2023-05-24T08:29:46.688Z,5.47
2023-05-24T08:35:52.140Z,8.00
2023-05-24T08:42:08.512Z,4.85
2023-05-24T08:45:13.673Z,5.30
2023-05-24T08:48:18.360Z,4.68
2023-05-24T08:51:21.672Z,4.00
2023-05-24T08:54:25.107Z,5.00
2023-05-24T08:57:28.423Z,4.85
2023-05-24T09:00:31.731Z,7.68
2023-05-24T09:03:36.979Z,4.15
2023-05-24T09:06:40.212Z,6.60
2023-05-24T09:09:47.532Z,3.70
2023-05-24T09:12:57.654Z,6.47
2023-05-24T09:16:00.992Z,5.82
2023-05-24T09:19:04.318Z,4.50
2023-05-24T09:22:07.318Z,3.17
2023-05-24T09:25:13.349Z,4.87
2023-05-24T09:28:18.226Z,4.25
2023-05-24T09:31:32.970Z,7.68
2023-05-24T09:34:43.818Z,3.62
2023-05-24T09:37:47.285Z,3.67
2023-05-24T09:41:07.259Z,5.47
2023-05-24T09:44:14.424Z,2.78
2023-05-24T09:47:17.328Z,4.70
2023-05-24T09:50:20.425Z,3.55
2023-05-24T09:53:23.707Z,6.80
2023-05-24T09:56:27.116Z,7.30
2023-05-24T09:59:33.934Z,4.85
2023-05-24T10:02:51.434Z,5.43
2023-05-24T10:05:56.705Z,3.67
2023-05-24T10:09:00.050Z,2.83
2023-05-24T10:12:05.269Z,3.15
2023-05-24T10:15:09.071Z,3.75
2023-05-24T10:18:13.846Z,3.90
2023-05-24T10:21:19.094Z,3.03
2023-05-24T10:24:26.403Z,5.05
2023-05-24T10:27:33.197Z,3.20
2023-05-24T10:30:48.420Z,7.28
2023-05-24T10:33:52.108Z,3.47
2023-05-24T10:36:55.339Z,3.30
2023-05-24T10:40:00.015Z,3.62
2023-05-24T10:43:09.632Z,2.47
2023-05-24T10:46:15.510Z,3.67
2023-05-24T10:49:19.289Z,3.90
2023-05-24T10:52:22.171Z,5.43
2023-05-24T10:55:25.811Z,3.28
2023-05-24T10:58:34.361Z,4.65
2023-05-24T11:01:37.407Z,4.87
2023-05-24T11:04:46.144Z,5.75
2023-05-24T11:07:49.403Z,2.87
2023-05-24T11:11:26.629Z,2.50
2023-05-24T11:14:32.425Z,2.87
2023-05-24T11:18:09.220Z,2.80
2023-05-24T11:21:12.823Z,3.50
2023-05-24T11:24:19.763Z,4.15
2023-05-24T11:27:24.006Z,3.17
2023-05-24T11:30:26.713Z,3.35
2023-05-24T11:33:29.673Z,4.45
2023-05-24T11:36:33.622Z,3.60
2023-05-24T11:39:37.836Z,7.70
2023-05-24T11:42:41.149Z,3.00
2023-05-24T11:45:48.600Z,2.67
2023-05-24T11:48:57.769Z,3.15
2023-05-24T11:52:01.735Z,2.75
2023-05-24T11:55:04.874Z,4.40
2023-05-24T11:58:17.033Z,4.18
2023-05-24T12:01:24.950Z,2.85
2023-05-24T12:04:29.253Z,3.50
2023-05-24T12:07:32.063Z,3.28
2023-05-24T12:10:36.633Z,2.83
2023-05-24T12:13:40.481Z,2.83
2023-05-24T12:16:44.426Z,2.85
2023-05-24T12:19:50.924Z,3.10
2023-05-24T12:22:55.343Z,3.87
2023-05-24T12:26:02.044Z,3.20
2023-05-24T12:29:05.159Z,2.20
2023-05-24T12:32:13.258Z,3.05
2023-05-24T12:35:18.543Z,5.43
2023-05-24T12:38:25.599Z,1.73
2023-05-24T12:41:30.860Z,3.62
2023-05-24T12:44:37.865Z,2.20
2023-05-24T12:47:41.050Z,2.65
2023-05-24T12:50:44.132Z,3.47
2023-05-24T12:53:47.278Z,2.70
2023-05-24T12:56:52.209Z,4.30
2023-05-24T12:59:56.713Z,2.42
2023-05-24T13:03:00.105Z,1.80
2023-05-24T13:06:03.180Z,1.65
2023-05-24T13:09:06.519Z,3.40
2023-05-24T13:12:09.984Z,4.60
2023-05-24T13:15:13.930Z,7.32
2023-05-24T13:18:17.052Z,2.60
2023-05-24T13:21:19.778Z,3.45
2023-05-24T13:24:23.327Z,2.10
2023-05-24T13:27:26.752Z,1.62
2023-05-24T13:30:30.069Z,1.77
2023-05-24T13:33:35.825Z,4.30
2023-05-24T13:36:39.283Z,1.87
2023-05-24T13:39:42.784Z,2.37
2023-05-24T13:42:45.769Z,2.62
2023-05-24T13:45:48.552Z,3.90
2023-05-24T13:48:51.555Z,1.95
2023-05-24T13:51:57.174Z,2.47
2023-05-24T13:55:04.768Z,1.92
2023-05-24T13:58:07.826Z,2.92
2023-05-24T14:01:11.070Z,3.87
2023-05-24T14:04:14.252Z,4.57
2023-05-24T14:07:17.177Z,5.90
2023-05-24T14:10:21.560Z,1.75
2023-05-24T14:14:13.802Z,1.92
2023-05-24T14:16:51.664Z,1.90
2023-05-24T14:19:54.553Z,1.90
2023-05-24T14:22:58.626Z,2.90
2023-05-24T14:26:02.092Z,2.45
2023-05-24T14:29:05.098Z,1.55
2023-05-24T14:32:08.287Z,3.62
2023-05-24T14:35:11.416Z,2.72
2023-05-24T14:38:14.076Z,1.90
2023-05-24T14:41:16.955Z,1.92
2023-05-24T14:44:19.602Z,1.75
2023-05-24T14:47:22.631Z,2.95
2023-05-24T14:50:25.372Z,1.35
2023-05-24T14:53:28.359Z,1.52
2023-05-24T14:56:31.525Z,3.58
2023-05-24T14:59:34.854Z,1.60
2023-05-24T15:02:37.882Z,2.28
2023-05-24T15:05:42.680Z,1.42
2023-05-24T15:08:45.623Z,2.00
2023-05-24T15:11:48.636Z,2.00
2023-05-24T15:14:51.354Z,1.67
2023-05-24T15:17:54.385Z,2.47
2023-05-24T15:20:57.597Z,1.45
2023-05-24T15:24:00.767Z,2.17
2023-05-24T15:27:03.486Z,1.50
2023-05-24T15:30:07.499Z,2.33
2023-05-24T15:33:11.235Z,2.42
2023-05-24T15:36:16.911Z,1.65
2023-05-24T15:39:22.808Z,1.40
2023-05-24T15:42:25.721Z,1.87
2023-05-24T15:45:28.384Z,2.58
2023-05-24T15:48:34.196Z,1.87
